Howard City, Michigan
Current Conditions -  °F | °C
As of 12:34 PM on Thursday 18 Dec 2014 (Local Time) from KRQB Reporting Station
Overcast Overcast  
Wind Chill: 24°   Ceiling: 1100
Heat Index: 29°   Visibility: 10mi
Dew Point: 26°   Wind: 5mph
Humidity: 90%   Direction: 360°N
Pressure: 30.17"   Gusts: NA
Location:  43.4°N, 85.47°W
Report Text: KRQB 181734Z AUTO 36004KT 10SM OVC011 M02/M03 A3017 RMK AO2 T10171031
Loading
Personal Weather Stations






























Interactive Weather Map New forecast layout! Learn more

10-Day Weather Forecast

Advertisements
Track Severe Weather on mobile